YPTN/KTR METAR and TAF weather

Enter ICAO airport designator
Station Type Date Time Source
YPTN METAR 2021/05/14 22:00 UTC NOAA

YPTN 142200Z AUTO 12004KT 9999 // NCD 14/05 Q1014


Station Type Date Time Source
YPTN Decoded METAR 2021/05/14 22:00 UTC NOAA

Tindal / Katherine, Australia (YPTN) 14-26S 132-16E 109M
May 14, 2021 - 06:00 PM EDT / 2021.05.14 2200 UTC
Wind: from the ESE (120 degrees) at 5 MPH (4 KT):0
Visibility: greater than 7 mile(s):0
Temperature: 57 F (14 C)
Dew Point: 41 F (5 C)
Relative Humidity: 54%
Pressure (altimeter): 29.94 in. Hg (1014 hPa)
ob: YPTN 142200Z AUTO 12004KT 9999 // NCD 14/05 Q1014
cycle: 22

Station Type Date Time Source
YPTN TAF 2021/05/14 18:33 UTC NOAA

TAF YPTN 141706Z 1418/1518 14006KT CAVOK
FM150000 12014KT CAVOK
FM150900 14006KT CAVOK

Example: see airport list